sensor_id;sensor_type;location;lat;lon;timestamp;P1;durP1;ratioP1;P2;durP2;ratioP2
819;SDS011;392;48.838;2.322;2023-04-06T00:01:07;12.60;;;10.67;;
819;SDS011;392;48.838;2.322;2023-04-06T00:03:35;11.57;;;10.37;;
819;SDS011;392;48.838;2.322;2023-04-06T00:06:03;12.03;;;10.57;;
819;SDS011;392;48.838;2.322;2023-04-06T00:08:31;12.17;;;10.40;;
819;SDS011;392;48.838;2.322;2023-04-06T00:10:58;11.93;;;10.67;;
819;SDS011;392;48.838;2.322;2023-04-06T00:13:25;13.57;;;10.07;;
819;SDS011;392;48.838;2.322;2023-04-06T00:15:53;11.33;;;10.13;;
819;SDS011;392;48.838;2.322;2023-04-06T00:18:22;12.23;;;11.00;;
819;SDS011;392;48.838;2.322;2023-04-06T00:20:49;12.63;;;11.07;;
819;SDS011;392;48.838;2.322;2023-04-06T00:23:16;11.47;;;10.30;;
819;SDS011;392;48.838;2.322;2023-04-06T00:25:44;12.67;;;11.27;;
819;SDS011;392;48.838;2.322;2023-04-06T00:28:11;11.23;;;10.10;;
819;SDS011;392;48.838;2.322;2023-04-06T00:30:40;12.13;;;10.50;;
819;SDS011;392;48.838;2.322;2023-04-06T00:33:07;11.77;;;10.57;;
819;SDS011;392;48.838;2.322;2023-04-06T00:35:36;13.63;;;10.43;;
819;SDS011;392;48.838;2.322;2023-04-06T00:38:04;12.03;;;10.63;;
819;SDS011;392;48.838;2.322;2023-04-06T00:40:31;12.00;;;10.70;;
819;SDS011;392;48.838;2.322;2023-04-06T00:43:00;13.10;;;10.67;;
819;SDS011;392;48.838;2.322;2023-04-06T00:45:27;12.30;;;10.73;;
819;SDS011;392;48.838;2.322;2023-04-06T00:47:55;13.17;;;11.07;;
819;SDS011;392;48.838;2.322;2023-04-06T00:50:23;12.70;;;11.43;;
819;SDS011;392;48.838;2.322;2023-04-06T00:52:53;13.63;;;10.83;;
819;SDS011;392;48.838;2.322;2023-04-06T00:55:25;10.97;;;9.80;;
819;SDS011;392;48.838;2.322;2023-04-06T00:57:53;12.80;;;11.13;;
819;SDS011;392;48.838;2.322;2023-04-06T01:00:21;13.17;;;11.40;;
819;SDS011;392;48.838;2.322;2023-04-06T01:02:54;13.23;;;11.13;;
819;SDS011;392;48.838;2.322;2023-04-06T01:05:26;12.80;;;11.50;;
819;SDS011;392;48.838;2.322;2023-04-06T01:07:58;12.20;;;10.90;;
819;SDS011;392;48.838;2.322;2023-04-06T01:10:28;13.07;;;11.37;;
819;SDS011;392;48.838;2.322;2023-04-06T01:13:01;13.20;;;11.10;;
819;SDS011;392;48.838;2.322;2023-04-06T01:15:48;13.70;;;11.90;;
819;SDS011;392;48.838;2.322;2023-04-06T01:18:25;12.27;;;10.97;;
819;SDS011;392;48.838;2.322;2023-04-06T01:21:00;12.03;;;10.73;;
819;SDS011;392;48.838;2.322;2023-04-06T01:23:29;14.20;;;11.97;;
819;SDS011;392;48.838;2.322;2023-04-06T01:25:57;12.90;;;11.47;;
819;SDS011;392;48.838;2.322;2023-04-06T01:28:25;13.43;;;11.80;;
819;SDS011;392;48.838;2.322;2023-04-06T01:31:06;14.70;;;11.33;;
819;SDS011;392;48.838;2.322;2023-04-06T01:33:47;13.33;;;10.73;;
819;SDS011;392;48.838;2.322;2023-04-06T01:36:18;12.90;;;10.60;;
819;SDS011;392;48.838;2.322;2023-04-06T01:38:54;13.47;;;11.40;;
819;SDS011;392;48.838;2.322;2023-04-06T01:41:29;12.83;;;11.33;;
819;SDS011;392;48.838;2.322;2023-04-06T01:43:56;15.50;;;11.93;;
819;SDS011;392;48.838;2.322;2023-04-06T01:46:27;13.97;;;11.40;;
819;SDS011;392;48.838;2.322;2023-04-06T01:48:54;11.80;;;10.50;;
819;SDS011;392;48.838;2.322;2023-04-06T01:51:30;13.47;;;11.70;;
819;SDS011;392;48.838;2.322;2023-04-06T01:54:02;12.60;;;11.33;;
819;SDS011;392;48.838;2.322;2023-04-06T01:56:48;13.60;;;11.40;;
819;SDS011;392;48.838;2.322;2023-04-06T01:59:30;14.20;;;12.00;;
819;SDS011;392;48.838;2.322;2023-04-06T02:02:01;13.53;;;12.10;;
819;SDS011;392;48.838;2.322;2023-04-06T02:04:30;12.83;;;11.13;;
819;SDS011;392;48.838;2.322;2023-04-06T02:07:07;14.73;;;12.63;;
819;SDS011;392;48.838;2.322;2023-04-06T02:09:35;14.07;;;12.00;;
819;SDS011;392;48.838;2.322;2023-04-06T02:12:06;13.03;;;11.73;;
819;SDS011;392;48.838;2.322;2023-04-06T02:14:34;12.97;;;11.40;;
819;SDS011;392;48.838;2.322;2023-04-06T02:17:01;15.43;;;11.63;;
819;SDS011;392;48.838;2.322;2023-04-06T02:19:28;13.67;;;12.37;;
819;SDS011;392;48.838;2.322;2023-04-06T02:21:56;13.23;;;11.83;;
819;SDS011;392;48.838;2.322;2023-04-06T02:24:23;13.80;;;11.70;;
819;SDS011;392;48.838;2.322;2023-04-06T02:26:52;14.23;;;12.40;;
819;SDS011;392;48.838;2.322;2023-04-06T02:29:19;13.07;;;11.63;;
819;SDS011;392;48.838;2.322;2023-04-06T02:31:47;13.07;;;11.77;;
819;SDS011;392;48.838;2.322;2023-04-06T02:34:15;14.53;;;11.37;;
819;SDS011;392;48.838;2.322;2023-04-06T02:36:47;14.33;;;11.90;;
819;SDS011;392;48.838;2.322;2023-04-06T02:39:14;14.17;;;11.40;;
819;SDS011;392;48.838;2.322;2023-04-06T02:41:42;13.37;;;11.37;;
819;SDS011;392;48.838;2.322;2023-04-06T02:44:13;15.53;;;11.80;;
819;SDS011;392;48.838;2.322;2023-04-06T02:46:42;15.97;;;12.00;;
819;SDS011;392;48.838;2.322;2023-04-06T02:49:09;12.87;;;10.93;;
819;SDS011;392;48.838;2.322;2023-04-06T02:51:37;16.03;;;12.07;;
819;SDS011;392;48.838;2.322;2023-04-06T02:54:27;14.00;;;11.27;;
819;SDS011;392;48.838;2.322;2023-04-06T02:56:54;14.30;;;11.87;;
819;SDS011;392;48.838;2.322;2023-04-06T02:59:29;13.70;;;11.50;;
819;SDS011;392;48.838;2.322;2023-04-06T03:02:05;13.00;;;11.00;;
819;SDS011;392;48.838;2.322;2023-04-06T03:04:33;14.20;;;11.10;;
819;SDS011;392;48.838;2.322;2023-04-06T03:07:04;12.83;;;11.03;;
819;SDS011;392;48.838;2.322;2023-04-06T03:09:36;13.53;;;11.90;;
819;SDS011;392;48.838;2.322;2023-04-06T03:12:04;13.30;;;11.90;;
819;SDS011;392;48.838;2.322;2023-04-06T03:14:43;13.50;;;12.13;;
819;SDS011;392;48.838;2.322;2023-04-06T03:17:11;13.00;;;11.13;;
819;SDS011;392;48.838;2.322;2023-04-06T03:19:39;16.23;;;12.57;;
819;SDS011;392;48.838;2.322;2023-04-06T03:22:08;14.60;;;12.57;;
819;SDS011;392;48.838;2.322;2023-04-06T03:24:35;14.13;;;11.50;;
819;SDS011;392;48.838;2.322;2023-04-06T03:27:04;14.07;;;11.50;;
819;SDS011;392;48.838;2.322;2023-04-06T03:29:33;15.23;;;10.90;;
819;SDS011;392;48.838;2.322;2023-04-06T03:32:02;14.67;;;11.93;;
819;SDS011;392;48.838;2.322;2023-04-06T03:34:37;13.17;;;11.53;;
819;SDS011;392;48.838;2.322;2023-04-06T03:37:05;13.03;;;11.20;;
819;SDS011;392;48.838;2.322;2023-04-06T03:39:34;12.03;;;10.70;;
819;SDS011;392;48.838;2.322;2023-04-06T03:42:02;13.93;;;11.73;;
819;SDS011;392;48.838;2.322;2023-04-06T03:44:35;15.20;;;11.67;;
819;SDS011;392;48.838;2.322;2023-04-06T03:47:06;11.60;;;10.37;;
819;SDS011;392;48.838;2.322;2023-04-06T03:49:33;13.97;;;11.80;;
819;SDS011;392;48.838;2.322;2023-04-06T03:52:01;12.53;;;11.23;;
819;SDS011;392;48.838;2.322;2023-04-06T03:54:28;13.77;;;11.63;;
819;SDS011;392;48.838;2.322;2023-04-06T03:56:56;12.03;;;10.83;;
819;SDS011;392;48.838;2.322;2023-04-06T03:59:25;13.83;;;11.43;;
819;SDS011;392;48.838;2.322;2023-04-06T04:01:53;12.43;;;10.70;;
819;SDS011;392;48.838;2.322;2023-04-06T04:04:22;14.57;;;11.43;;
819;SDS011;392;48.838;2.322;2023-04-06T04:06:50;12.20;;;10.90;;
819;SDS011;392;48.838;2.322;2023-04-06T04:09:17;11.93;;;10.60;;
819;SDS011;392;48.838;2.322;2023-04-06T04:11:45;15.00;;;11.50;;
819;SDS011;392;48.838;2.322;2023-04-06T04:14:12;14.77;;;11.63;;
819;SDS011;392;48.838;2.322;2023-04-06T04:16:39;13.23;;;11.10;;
819;SDS011;392;48.838;2.322;2023-04-06T04:19:07;13.17;;;11.43;;
819;SDS011;392;48.838;2.322;2023-04-06T04:21:41;13.60;;;11.30;;
819;SDS011;392;48.838;2.322;2023-04-06T04:24:12;12.27;;;10.63;;
819;SDS011;392;48.838;2.322;2023-04-06T04:26:40;12.03;;;10.73;;
819;SDS011;392;48.838;2.322;2023-04-06T04:29:08;12.40;;;10.30;;
819;SDS011;392;48.838;2.322;2023-04-06T04:31:37;12.93;;;10.50;;
819;SDS011;392;48.838;2.322;2023-04-06T04:34:11;13.87;;;11.37;;
819;SDS011;392;48.838;2.322;2023-04-06T04:36:41;12.57;;;10.83;;
819;SDS011;392;48.838;2.322;2023-04-06T04:39:12;12.30;;;11.13;;
819;SDS011;392;48.838;2.322;2023-04-06T04:41:43;12.60;;;10.90;;
819;SDS011;392;48.838;2.322;2023-04-06T04:44:12;12.07;;;10.63;;
819;SDS011;392;48.838;2.322;2023-04-06T04:46:40;12.47;;;11.07;;
819;SDS011;392;48.838;2.322;2023-04-06T04:49:09;11.80;;;10.00;;
819;SDS011;392;48.838;2.322;2023-04-06T04:51:37;12.03;;;10.83;;
819;SDS011;392;48.838;2.322;2023-04-06T04:54:12;12.73;;;11.43;;
819;SDS011;392;48.838;2.322;2023-04-06T04:56:41;12.67;;;10.93;;
819;SDS011;392;48.838;2.322;2023-04-06T04:59:32;12.97;;;11.10;;
819;SDS011;392;48.838;2.322;2023-04-06T05:02:09;11.93;;;10.63;;
819;SDS011;392;48.838;2.322;2023-04-06T05:04:45;11.73;;;10.63;;
819;SDS011;392;48.838;2.322;2023-04-06T05:07:19;13.17;;;11.50;;
819;SDS011;392;48.838;2.322;2023-04-06T05:09:48;13.10;;;11.70;;
819;SDS011;392;48.838;2.322;2023-04-06T05:12:16;12.23;;;10.47;;
819;SDS011;392;48.838;2.322;2023-04-06T05:14:59;12.47;;;11.07;;
819;SDS011;392;48.838;2.322;2023-04-06T05:17:26;12.33;;;10.80;;
819;SDS011;392;48.838;2.322;2023-04-06T05:19:55;11.50;;;10.30;;
819;SDS011;392;48.838;2.322;2023-04-06T05:22:24;12.23;;;10.40;;
819;SDS011;392;48.838;2.322;2023-04-06T05:25:22;10.90;;;9.80;;
819;SDS011;392;48.838;2.322;2023-04-06T05:27:52;12.10;;;10.80;;
819;SDS011;392;48.838;2.322;2023-04-06T05:30:28;11.43;;;10.23;;
819;SDS011;392;48.838;2.322;2023-04-06T05:32:55;12.33;;;10.30;;
819;SDS011;392;48.838;2.322;2023-04-06T05:35:26;10.73;;;9.67;;
819;SDS011;392;48.838;2.322;2023-04-06T05:37:58;12.73;;;10.23;;
819;SDS011;392;48.838;2.322;2023-04-06T05:40:28;12.43;;;10.17;;
819;SDS011;392;48.838;2.322;2023-04-06T05:42:55;13.23;;;9.53;;
819;SDS011;392;48.838;2.322;2023-04-06T05:45:23;10.70;;;9.53;;
819;SDS011;392;48.838;2.322;2023-04-06T05:47:54;12.20;;;10.70;;
819;SDS011;392;48.838;2.322;2023-04-06T05:50:25;12.70;;;9.90;;
819;SDS011;392;48.838;2.322;2023-04-06T05:52:53;12.17;;;10.40;;
819;SDS011;392;48.838;2.322;2023-04-06T05:55:23;11.43;;;10.17;;
819;SDS011;392;48.838;2.322;2023-04-06T05:58:03;13.13;;;10.07;;
819;SDS011;392;48.838;2.322;2023-04-06T06:00:31;10.77;;;9.60;;
819;SDS011;392;48.838;2.322;2023-04-06T06:03:03;11.03;;;9.93;;
819;SDS011;392;48.838;2.322;2023-04-06T06:05:32;12.40;;;10.47;;
819;SDS011;392;48.838;2.322;2023-04-06T06:08:07;10.47;;;9.37;;
819;SDS011;392;48.838;2.322;2023-04-06T06:10:35;12.17;;;10.97;;
819;SDS011;392;48.838;2.322;2023-04-06T06:13:08;11.30;;;9.93;;
819;SDS011;392;48.838;2.322;2023-04-06T06:15:36;13.37;;;10.30;;
819;SDS011;392;48.838;2.322;2023-04-06T06:18:03;12.47;;;10.67;;
819;SDS011;392;48.838;2.322;2023-04-06T06:20:31;12.70;;;10.40;;
819;SDS011;392;48.838;2.322;2023-04-06T06:23:02;13.47;;;11.60;;
819;SDS011;392;48.838;2.322;2023-04-06T06:25:31;12.90;;;10.20;;
819;SDS011;392;48.838;2.322;2023-04-06T06:27:58;12.80;;;11.10;;
819;SDS011;392;48.838;2.322;2023-04-06T06:30:30;16.90;;;10.67;;
819;SDS011;392;48.838;2.322;2023-04-06T06:32:59;11.30;;;10.20;;
819;SDS011;392;48.838;2.322;2023-04-06T06:35:27;11.90;;;10.67;;
819;SDS011;392;48.838;2.322;2023-04-06T06:37:55;14.50;;;11.47;;
819;SDS011;392;48.838;2.322;2023-04-06T06:40:25;12.37;;;10.90;;
819;SDS011;392;48.838;2.322;2023-04-06T06:42:54;13.27;;;11.60;;
819;SDS011;392;48.838;2.322;2023-04-06T06:45:34;14.43;;;10.97;;
819;SDS011;392;48.838;2.322;2023-04-06T06:48:01;12.37;;;11.07;;
819;SDS011;392;48.838;2.322;2023-04-06T06:50:29;13.20;;;11.70;;
819;SDS011;392;48.838;2.322;2023-04-06T06:52:56;15.90;;;11.60;;
819;SDS011;392;48.838;2.322;2023-04-06T06:55:24;16.20;;;11.53;;
819;SDS011;392;48.838;2.322;2023-04-06T06:57:52;13.23;;;11.03;;
819;SDS011;392;48.838;2.322;2023-04-06T07:00:19;11.80;;;10.47;;
819;SDS011;392;48.838;2.322;2023-04-06T07:02:49;13.57;;;11.17;;
819;SDS011;392;48.838;2.322;2023-04-06T07:05:17;12.37;;;10.30;;
819;SDS011;392;48.838;2.322;2023-04-06T07:07:44;11.43;;;10.20;;
819;SDS011;392;48.838;2.322;2023-04-06T07:10:12;13.60;;;10.93;;
819;SDS011;392;48.838;2.322;2023-04-06T07:12:39;12.97;;;11.40;;
819;SDS011;392;48.838;2.322;2023-04-06T07:15:07;13.10;;;11.20;;
819;SDS011;392;48.838;2.322;2023-04-06T07:17:35;13.00;;;11.70;;
819;SDS011;392;48.838;2.322;2023-04-06T07:20:04;13.03;;;11.30;;
819;SDS011;392;48.838;2.322;2023-04-06T07:22:32;15.27;;;11.27;;
819;SDS011;392;48.838;2.322;2023-04-06T07:25:00;12.57;;;11.27;;
819;SDS011;392;48.838;2.322;2023-04-06T07:27:27;14.13;;;11.70;;
819;SDS011;392;48.838;2.322;2023-04-06T07:29:55;17.00;;;11.20;;
819;SDS011;392;48.838;2.322;2023-04-06T07:32:22;14.20;;;11.87;;
819;SDS011;392;48.838;2.322;2023-04-06T07:34:50;13.80;;;11.80;;
819;SDS011;392;48.838;2.322;2023-04-06T07:37:19;18.53;;;12.00;;
819;SDS011;392;48.838;2.322;2023-04-06T07:39:47;12.53;;;11.23;;
819;SDS011;392;48.838;2.322;2023-04-06T07:42:14;14.30;;;11.83;;
819;SDS011;392;48.838;2.322;2023-04-06T07:44:42;15.23;;;11.97;;
819;SDS011;392;48.838;2.322;2023-04-06T07:47:10;12.53;;;11.20;;
819;SDS011;392;48.838;2.322;2023-04-06T07:49:38;14.77;;;12.10;;
819;SDS011;392;48.838;2.322;2023-04-06T07:52:05;16.33;;;12.33;;
819;SDS011;392;48.838;2.322;2023-04-06T07:54:34;14.90;;;11.77;;
819;SDS011;392;48.838;2.322;2023-04-06T07:57:02;14.77;;;12.10;;
819;SDS011;392;48.838;2.322;2023-04-06T07:59:30;13.67;;;11.40;;
819;SDS011;392;48.838;2.322;2023-04-06T08:01:57;13.17;;;11.70;;
819;SDS011;392;48.838;2.322;2023-04-06T08:04:24;14.30;;;11.83;;
819;SDS011;392;48.838;2.322;2023-04-06T08:06:52;15.17;;;12.20;;
819;SDS011;392;48.838;2.322;2023-04-06T08:09:19;15.17;;;11.97;;
819;SDS011;392;48.838;2.322;2023-04-06T08:11:48;13.07;;;11.60;;
819;SDS011;392;48.838;2.322;2023-04-06T08:14:15;14.30;;;12.80;;
819;SDS011;392;48.838;2.322;2023-04-06T08:16:43;16.27;;;13.90;;
819;SDS011;392;48.838;2.322;2023-04-06T08:19:10;14.90;;;13.33;;
819;SDS011;392;48.838;2.322;2023-04-06T08:21:38;13.67;;;12.23;;
819;SDS011;392;48.838;2.322;2023-04-06T08:24:06;15.07;;;13.47;;
819;SDS011;392;48.838;2.322;2023-04-06T08:26:33;15.87;;;14.17;;
819;SDS011;392;48.838;2.322;2023-04-06T08:29:02;15.17;;;12.90;;
819;SDS011;392;48.838;2.322;2023-04-06T08:31:32;15.13;;;13.43;;
819;SDS011;392;48.838;2.322;2023-04-06T08:34:00;16.17;;;12.63;;
819;SDS011;392;48.838;2.322;2023-04-06T08:36:27;16.13;;;13.40;;
819;SDS011;392;48.838;2.322;2023-04-06T08:38:55;16.87;;;13.83;;
819;SDS011;392;48.838;2.322;2023-04-06T08:41:22;14.67;;;13.10;;
819;SDS011;392;48.838;2.322;2023-04-06T08:43:52;16.23;;;14.53;;
819;SDS011;392;48.838;2.322;2023-04-06T08:46:25;16.00;;;13.37;;
819;SDS011;392;48.838;2.322;2023-04-06T08:48:55;15.63;;;13.97;;
819;SDS011;392;48.838;2.322;2023-04-06T08:51:24;15.53;;;13.83;;
819;SDS011;392;48.838;2.322;2023-04-06T08:53:52;15.40;;;13.90;;
819;SDS011;392;48.838;2.322;2023-04-06T08:56:21;16.13;;;14.50;;
819;SDS011;392;48.838;2.322;2023-04-06T08:58:49;16.03;;;13.50;;
819;SDS011;392;48.838;2.322;2023-04-06T09:01:17;16.20;;;13.93;;
819;SDS011;392;48.838;2.322;2023-04-06T09:03:52;14.70;;;13.20;;
819;SDS011;392;48.838;2.322;2023-04-06T09:06:23;15.73;;;13.93;;
819;SDS011;392;48.838;2.322;2023-04-06T09:08:53;14.67;;;13.23;;
819;SDS011;392;48.838;2.322;2023-04-06T09:11:22;14.70;;;12.90;;
819;SDS011;392;48.838;2.322;2023-04-06T09:13:50;16.10;;;14.40;;
819;SDS011;392;48.838;2.322;2023-04-06T09:16:19;14.93;;;12.97;;
819;SDS011;392;48.838;2.322;2023-04-06T09:18:48;16.17;;;13.10;;
819;SDS011;392;48.838;2.322;2023-04-06T09:21:19;14.60;;;13.10;;
819;SDS011;392;48.838;2.322;2023-04-06T09:23:47;14.30;;;12.80;;
819;SDS011;392;48.838;2.322;2023-04-06T09:26:25;15.47;;;13.87;;
819;SDS011;392;48.838;2.322;2023-04-06T09:28:53;15.37;;;13.17;;
819;SDS011;392;48.838;2.322;2023-04-06T09:31:22;15.33;;;13.17;;
819;SDS011;392;48.838;2.322;2023-04-06T09:33:51;14.63;;;13.17;;
819;SDS011;392;48.838;2.322;2023-04-06T09:36:28;13.80;;;12.30;;
819;SDS011;392;48.838;2.322;2023-04-06T09:38:57;16.43;;;12.33;;
819;SDS011;392;48.838;2.322;2023-04-06T09:41:26;13.90;;;11.40;;
819;SDS011;392;48.838;2.322;2023-04-06T09:44:02;12.70;;;11.40;;
819;SDS011;392;48.838;2.322;2023-04-06T09:46:31;12.27;;;10.87;;
819;SDS011;392;48.838;2.322;2023-04-06T09:49:00;12.70;;;11.40;;
819;SDS011;392;48.838;2.322;2023-04-06T09:51:31;11.53;;;10.37;;
819;SDS011;392;48.838;2.322;2023-04-06T09:54:04;11.48;;;9.95;;
819;SDS011;392;48.838;2.322;2023-04-06T09:56:33;10.53;;;9.43;;
819;SDS011;392;48.838;2.322;2023-04-06T09:59:12;10.20;;;9.20;;
819;SDS011;392;48.838;2.322;2023-04-06T10:01:46;9.83;;;8.83;;
819;SDS011;392;48.838;2.322;2023-04-06T10:04:21;9.60;;;8.60;;
819;SDS011;392;48.838;2.322;2023-04-06T10:06:58;10.17;;;9.07;;
819;SDS011;392;48.838;2.322;2023-04-06T10:09:28;10.27;;;9.17;;
819;SDS011;392;48.838;2.322;2023-04-06T10:12:01;9.30;;;8.30;;
819;SDS011;392;48.838;2.322;2023-04-06T10:14:31;10.20;;;9.10;;
819;SDS011;392;48.838;2.322;2023-04-06T10:17:01;9.07;;;8.17;;
819;SDS011;392;48.838;2.322;2023-04-06T10:19:31;8.90;;;8.00;;
819;SDS011;392;48.838;2.322;2023-04-06T10:22:10;9.43;;;8.53;;
819;SDS011;392;48.838;2.322;2023-04-06T10:24:42;9.30;;;8.40;;
819;SDS011;392;48.838;2.322;2023-04-06T10:27:09;8.77;;;7.97;;
819;SDS011;392;48.838;2.322;2023-04-06T10:29:46;9.07;;;8.27;;
819;SDS011;392;48.838;2.322;2023-04-06T10:32:15;10.20;;;8.70;;
819;SDS011;392;48.838;2.322;2023-04-06T10:34:42;8.70;;;7.90;;
819;SDS011;392;48.838;2.322;2023-04-06T10:37:14;8.93;;;8.03;;
819;SDS011;392;48.838;2.322;2023-04-06T10:39:47;7.87;;;7.07;;
819;SDS011;392;48.838;2.322;2023-04-06T10:42:23;8.70;;;7.80;;
819;SDS011;392;48.838;2.322;2023-04-06T10:44:51;10.03;;;9.03;;
819;SDS011;392;48.838;2.322;2023-04-06T10:47:18;10.33;;;9.40;;
819;SDS011;392;48.838;2.322;2023-04-06T10:49:46;8.83;;;7.93;;
819;SDS011;392;48.838;2.322;2023-04-06T10:52:15;10.40;;;9.30;;
819;SDS011;392;48.838;2.322;2023-04-06T10:54:42;10.93;;;9.80;;
819;SDS011;392;48.838;2.322;2023-04-06T10:57:10;7.67;;;6.97;;
819;SDS011;392;48.838;2.322;2023-04-06T10:59:41;8.97;;;8.17;;
819;SDS011;392;48.838;2.322;2023-04-06T11:02:18;8.93;;;8.07;;
819;SDS011;392;48.838;2.322;2023-04-06T11:04:53;10.27;;;9.20;;
819;SDS011;392;48.838;2.322;2023-04-06T11:07:24;8.03;;;7.33;;
819;SDS011;392;48.838;2.322;2023-04-06T11:09:52;7.80;;;7.10;;
819;SDS011;392;48.838;2.322;2023-04-06T11:12:22;7.63;;;6.87;;
819;SDS011;392;48.838;2.322;2023-04-06T11:14:55;8.43;;;7.63;;
819;SDS011;392;48.838;2.322;2023-04-06T11:17:27;6.93;;;6.23;;
819;SDS011;392;48.838;2.322;2023-04-06T11:19:55;7.67;;;6.87;;
819;SDS011;392;48.838;2.322;2023-04-06T11:22:24;7.43;;;6.63;;
819;SDS011;392;48.838;2.322;2023-04-06T11:24:52;7.37;;;6.77;;
819;SDS011;392;48.838;2.322;2023-04-06T11:27:31;6.60;;;6.00;;
819;SDS011;392;48.838;2.322;2023-04-06T11:29:59;6.70;;;6.20;;
819;SDS011;392;48.838;2.322;2023-04-06T11:32:26;6.20;;;5.70;;
819;SDS011;392;48.838;2.322;2023-04-06T11:34:54;7.30;;;6.60;;
819;SDS011;392;48.838;2.322;2023-04-06T11:37:27;6.67;;;6.07;;
819;SDS011;392;48.838;2.322;2023-04-06T11:39:54;6.20;;;5.80;;
819;SDS011;392;48.838;2.322;2023-04-06T11:42:22;6.17;;;5.67;;
819;SDS011;392;48.838;2.322;2023-04-06T11:44:51;6.17;;;5.77;;
819;SDS011;392;48.838;2.322;2023-04-06T11:47:20;6.97;;;6.50;;
819;SDS011;392;48.838;2.322;2023-04-06T11:49:55;6.90;;;6.40;;
819;SDS011;392;48.838;2.322;2023-04-06T11:52:33;6.27;;;5.87;;
819;SDS011;392;48.838;2.322;2023-04-06T11:55:10;5.97;;;5.53;;
819;SDS011;392;48.838;2.322;2023-04-06T11:57:40;5.70;;;5.30;;
819;SDS011;392;48.838;2.322;2023-04-06T12:00:09;7.27;;;5.40;;
819;SDS011;392;48.838;2.322;2023-04-06T12:02:37;5.83;;;5.43;;
819;SDS011;392;48.838;2.322;2023-04-06T12:05:06;5.67;;;5.23;;
819;SDS011;392;48.838;2.322;2023-04-06T12:07:36;5.07;;;4.63;;
819;SDS011;392;48.838;2.322;2023-04-06T12:10:03;4.40;;;3.80;;
819;SDS011;392;48.838;2.322;2023-04-06T12:12:32;4.70;;;4.30;;
819;SDS011;392;48.838;2.322;2023-04-06T12:14:59;5.70;;;5.07;;
819;SDS011;392;48.838;2.322;2023-04-06T12:17:26;3.97;;;3.67;;
819;SDS011;392;48.838;2.322;2023-04-06T12:19:54;4.27;;;3.97;;
819;SDS011;392;48.838;2.322;2023-04-06T12:22:21;4.90;;;4.43;;
819;SDS011;392;48.838;2.322;2023-04-06T12:24:49;4.87;;;4.57;;
819;SDS011;392;48.838;2.322;2023-04-06T12:27:17;4.07;;;3.77;;
819;SDS011;392;48.838;2.322;2023-04-06T12:29:44;4.90;;;4.50;;
819;SDS011;392;48.838;2.322;2023-04-06T12:32:11;4.40;;;4.10;;
819;SDS011;392;48.838;2.322;2023-04-06T12:34:39;4.30;;;3.80;;
819;SDS011;392;48.838;2.322;2023-04-06T12:37:06;4.40;;;3.60;;
819;SDS011;392;48.838;2.322;2023-04-06T12:39:33;3.00;;;2.80;;
819;SDS011;392;48.838;2.322;2023-04-06T12:42:02;3.20;;;2.90;;
819;SDS011;392;48.838;2.322;2023-04-06T12:44:29;3.30;;;3.00;;
819;SDS011;392;48.838;2.322;2023-04-06T12:46:57;3.60;;;3.30;;
819;SDS011;392;48.838;2.322;2023-04-06T12:49:25;3.20;;;2.90;;
819;SDS011;392;48.838;2.322;2023-04-06T12:51:52;3.93;;;3.60;;
819;SDS011;392;48.838;2.322;2023-04-06T12:54:20;3.53;;;3.10;;
819;SDS011;392;48.838;2.322;2023-04-06T12:56:48;2.70;;;2.50;;
819;SDS011;392;48.838;2.322;2023-04-06T12:59:17;3.60;;;3.30;;
819;SDS011;392;48.838;2.322;2023-04-06T13:01:46;3.47;;;3.17;;
819;SDS011;392;48.838;2.322;2023-04-06T13:04:13;3.27;;;3.00;;
819;SDS011;392;48.838;2.322;2023-04-06T13:06:41;3.40;;;3.10;;
819;SDS011;392;48.838;2.322;2023-04-06T13:09:08;3.10;;;2.83;;
819;SDS011;392;48.838;2.322;2023-04-06T13:11:35;3.00;;;2.80;;
819;SDS011;392;48.838;2.322;2023-04-06T13:14:02;2.50;;;2.30;;
819;SDS011;392;48.838;2.322;2023-04-06T13:16:32;2.63;;;2.47;;
819;SDS011;392;48.838;2.322;2023-04-06T13:18:59;2.97;;;2.67;;
819;SDS011;392;48.838;2.322;2023-04-06T13:21:26;2.80;;;2.50;;
819;SDS011;392;48.838;2.322;2023-04-06T13:23:53;2.50;;;2.30;;
819;SDS011;392;48.838;2.322;2023-04-06T13:26:21;2.70;;;2.50;;
819;SDS011;392;48.838;2.322;2023-04-06T13:28:49;4.60;;;2.40;;
819;SDS011;392;48.838;2.322;2023-04-06T13:31:16;2.43;;;2.23;;
819;SDS011;392;48.838;2.322;2023-04-06T13:33:45;2.47;;;2.27;;
819;SDS011;392;48.838;2.322;2023-04-06T13:36:12;3.80;;;2.77;;
819;SDS011;392;48.838;2.322;2023-04-06T13:38:40;2.70;;;2.50;;
819;SDS011;392;48.838;2.322;2023-04-06T13:41:07;2.37;;;2.17;;
819;SDS011;392;48.838;2.322;2023-04-06T13:43:34;3.27;;;3.00;;
819;SDS011;392;48.838;2.322;2023-04-06T13:46:01;3.60;;;3.00;;
819;SDS011;392;48.838;2.322;2023-04-06T13:48:29;2.90;;;2.70;;
819;SDS011;392;48.838;2.322;2023-04-06T13:50:58;2.77;;;2.60;;
819;SDS011;392;48.838;2.322;2023-04-06T13:53:35;3.03;;;2.70;;
819;SDS011;392;48.838;2.322;2023-04-06T13:56:02;2.90;;;2.70;;
819;SDS011;392;48.838;2.322;2023-04-06T13:58:30;2.53;;;2.40;;
819;SDS011;392;48.838;2.322;2023-04-06T14:01:01;4.07;;;2.50;;
819;SDS011;392;48.838;2.322;2023-04-06T14:03:30;3.73;;;2.30;;
819;SDS011;392;48.838;2.322;2023-04-06T14:05:58;3.37;;;2.30;;
819;SDS011;392;48.838;2.322;2023-04-06T14:08:25;4.03;;;2.50;;
819;SDS011;392;48.838;2.322;2023-04-06T14:10:53;2.23;;;2.03;;
819;SDS011;392;48.838;2.322;2023-04-06T14:13:20;2.40;;;2.03;;
819;SDS011;392;48.838;2.322;2023-04-06T14:15:52;3.73;;;2.30;;
819;SDS011;392;48.838;2.322;2023-04-06T14:18:20;3.73;;;2.50;;
819;SDS011;392;48.838;2.322;2023-04-06T14:20:53;6.37;;;5.17;;
819;SDS011;392;48.838;2.322;2023-04-06T14:23:23;2.10;;;1.97;;
819;SDS011;392;48.838;2.322;2023-04-06T14:25:51;3.40;;;2.13;;
819;SDS011;392;48.838;2.322;2023-04-06T14:28:30;2.70;;;2.47;;
819;SDS011;392;48.838;2.322;2023-04-06T14:30:58;2.20;;;1.73;;
819;SDS011;392;48.838;2.322;2023-04-06T14:33:26;2.57;;;2.37;;
819;SDS011;392;48.838;2.322;2023-04-06T14:35:53;2.97;;;1.87;;
819;SDS011;392;48.838;2.322;2023-04-06T14:38:22;2.17;;;1.77;;
819;SDS011;392;48.838;2.322;2023-04-06T14:40:50;3.37;;;2.87;;
819;SDS011;392;48.838;2.322;2023-04-06T14:43:17;2.97;;;2.20;;
819;SDS011;392;48.838;2.322;2023-04-06T14:45:44;3.07;;;1.70;;
819;SDS011;392;48.838;2.322;2023-04-06T14:48:11;3.00;;;2.40;;
819;SDS011;392;48.838;2.322;2023-04-06T14:50:41;4.20;;;2.17;;
819;SDS011;392;48.838;2.322;2023-04-06T14:53:11;3.50;;;1.90;;
819;SDS011;392;48.838;2.322;2023-04-06T14:55:40;2.37;;;1.70;;
819;SDS011;392;48.838;2.322;2023-04-06T14:58:08;4.20;;;2.20;;
819;SDS011;392;48.838;2.322;2023-04-06T15:00:36;3.67;;;1.70;;
819;SDS011;392;48.838;2.322;2023-04-06T15:03:04;3.80;;;1.83;;
819;SDS011;392;48.838;2.322;2023-04-06T15:05:33;2.47;;;2.10;;
819;SDS011;392;48.838;2.322;2023-04-06T15:08:01;2.40;;;2.20;;
819;SDS011;392;48.838;2.322;2023-04-06T15:10:30;3.10;;;2.47;;
819;SDS011;392;48.838;2.322;2023-04-06T15:12:59;1.90;;;1.80;;
819;SDS011;392;48.838;2.322;2023-04-06T15:15:26;2.60;;;1.90;;
819;SDS011;392;48.838;2.322;2023-04-06T15:17:54;2.00;;;1.90;;
819;SDS011;392;48.838;2.322;2023-04-06T15:20:21;2.60;;;2.40;;
819;SDS011;392;48.838;2.322;2023-04-06T15:22:49;2.53;;;2.30;;
819;SDS011;392;48.838;2.322;2023-04-06T15:25:16;4.13;;;1.80;;
819;SDS011;392;48.838;2.322;2023-04-06T15:27:43;3.40;;;2.30;;
819;SDS011;392;48.838;2.322;2023-04-06T15:30:13;2.50;;;2.30;;
819;SDS011;392;48.838;2.322;2023-04-06T15:32:40;2.30;;;2.07;;
819;SDS011;392;48.838;2.322;2023-04-06T15:35:19;4.23;;;2.40;;
819;SDS011;392;48.838;2.322;2023-04-06T15:37:46;5.20;;;2.17;;
819;SDS011;392;48.838;2.322;2023-04-06T15:40:14;2.43;;;2.00;;
819;SDS011;392;48.838;2.322;2023-04-06T15:42:41;4.67;;;2.10;;